sensor_id;sensor_type;location;lat;lon;timestamp;P1;durP1;ratioP1;P2;durP2;ratioP2
32236;SDS011;18726;44.732;10.550;2023-11-21T00:02:53;50.47;;;45.00;;
32236;SDS011;18726;44.732;10.550;2023-11-21T00:05:57;51.38;;;42.47;;
32236;SDS011;18726;44.732;10.550;2023-11-21T00:09:01;52.90;;;42.85;;
32236;SDS011;18726;44.732;10.550;2023-11-21T00:12:05;45.50;;;40.88;;
32236;SDS011;18726;44.732;10.550;2023-11-21T00:15:13;57.47;;;51.28;;
32236;SDS011;18726;44.732;10.550;2023-11-21T00:18:16;61.28;;;54.30;;
32236;SDS011;18726;44.732;10.550;2023-11-21T00:21:20;63.67;;;56.03;;
32236;SDS011;18726;44.732;10.550;2023-11-21T00:24:24;64.45;;;56.05;;
32236;SDS011;18726;44.732;10.550;2023-11-21T00:27:28;59.15;;;52.70;;
32236;SDS011;18726;44.732;10.550;2023-11-21T00:30:31;65.40;;;57.40;;
32236;SDS011;18726;44.732;10.550;2023-11-21T00:33:35;68.13;;;60.65;;
32236;SDS011;18726;44.732;10.550;2023-11-21T00:36:39;68.97;;;58.28;;
32236;SDS011;18726;44.732;10.550;2023-11-21T00:39:43;77.88;;;64.93;;
32236;SDS011;18726;44.732;10.550;2023-11-21T00:42:47;71.43;;;63.35;;
32236;SDS011;18726;44.732;10.550;2023-11-21T00:45:51;75.65;;;65.95;;
32236;SDS011;18726;44.732;10.550;2023-11-21T00:48:55;83.53;;;68.82;;
32236;SDS011;18726;44.732;10.550;2023-11-21T00:51:59;80.30;;;65.88;;
32236;SDS011;18726;44.732;10.550;2023-11-21T00:55:04;81.75;;;66.55;;
32236;SDS011;18726;44.732;10.550;2023-11-21T00:58:11;78.10;;;62.67;;
32236;SDS011;18726;44.732;10.550;2023-11-21T01:01:15;69.22;;;55.85;;
32236;SDS011;18726;44.732;10.550;2023-11-21T01:04:19;62.88;;;54.22;;
32236;SDS011;18726;44.732;10.550;2023-11-21T01:07:23;71.22;;;56.40;;
32236;SDS011;18726;44.732;10.550;2023-11-21T01:10:27;64.70;;;52.92;;
32236;SDS011;18726;44.732;10.550;2023-11-21T01:13:31;61.35;;;50.42;;
32236;SDS011;18726;44.732;10.550;2023-11-21T01:16:35;78.78;;;65.70;;
32236;SDS011;18726;44.732;10.550;2023-11-21T01:19:40;67.00;;;58.40;;
32236;SDS011;18726;44.732;10.550;2023-11-21T01:22:44;76.82;;;60.05;;
32236;SDS011;18726;44.732;10.550;2023-11-21T01:25:48;69.30;;;57.40;;
32236;SDS011;18726;44.732;10.550;2023-11-21T01:28:54;72.07;;;56.72;;
32236;SDS011;18726;44.732;10.550;2023-11-21T01:31:58;72.78;;;59.13;;
32236;SDS011;18726;44.732;10.550;2023-11-21T01:35:02;77.13;;;61.03;;
32236;SDS011;18726;44.732;10.550;2023-11-21T01:38:06;70.53;;;57.17;;
32236;SDS011;18726;44.732;10.550;2023-11-21T01:41:11;74.82;;;58.55;;
32236;SDS011;18726;44.732;10.550;2023-11-21T01:44:17;65.55;;;54.20;;
32236;SDS011;18726;44.732;10.550;2023-11-21T01:47:22;68.97;;;50.83;;
32236;SDS011;18726;44.732;10.550;2023-11-21T01:50:26;59.90;;;48.20;;
32236;SDS011;18726;44.732;10.550;2023-11-21T01:53:31;60.40;;;50.80;;
32236;SDS011;18726;44.732;10.550;2023-11-21T01:56:35;53.17;;;46.45;;
32236;SDS011;18726;44.732;10.550;2023-11-21T01:59:39;67.15;;;52.42;;
32236;SDS011;18726;44.732;10.550;2023-11-21T02:02:45;58.38;;;49.97;;
32236;SDS011;18726;44.732;10.550;2023-11-21T02:05:49;62.97;;;48.90;;
32236;SDS011;18726;44.732;10.550;2023-11-21T02:08:53;68.25;;;56.25;;
32236;SDS011;18726;44.732;10.550;2023-11-21T02:11:57;54.97;;;46.80;;
32236;SDS011;18726;44.732;10.550;2023-11-21T02:15:02;54.83;;;45.70;;
32236;SDS011;18726;44.732;10.550;2023-11-21T02:18:18;59.65;;;45.95;;
32236;SDS011;18726;44.732;10.550;2023-11-21T02:21:22;56.50;;;48.53;;
32236;SDS011;18726;44.732;10.550;2023-11-21T02:24:28;63.78;;;51.10;;
32236;SDS011;18726;44.732;10.550;2023-11-21T02:27:32;72.18;;;54.42;;
32236;SDS011;18726;44.732;10.550;2023-11-21T02:30:35;65.07;;;52.63;;
32236;SDS011;18726;44.732;10.550;2023-11-21T02:33:40;71.63;;;60.30;;
32236;SDS011;18726;44.732;10.550;2023-11-21T02:36:44;78.38;;;62.45;;
32236;SDS011;18726;44.732;10.550;2023-11-21T02:39:49;79.57;;;64.03;;
32236;SDS011;18726;44.732;10.550;2023-11-21T02:42:53;61.55;;;50.85;;
32236;SDS011;18726;44.732;10.550;2023-11-21T02:45:57;57.75;;;46.70;;
32236;SDS011;18726;44.732;10.550;2023-11-21T02:49:01;48.10;;;40.90;;
32236;SDS011;18726;44.732;10.550;2023-11-21T02:52:09;76.93;;;60.22;;
32236;SDS011;18726;44.732;10.550;2023-11-21T02:55:13;82.25;;;66.85;;
32236;SDS011;18726;44.732;10.550;2023-11-21T02:58:16;79.05;;;62.42;;
32236;SDS011;18726;44.732;10.550;2023-11-21T03:01:20;75.68;;;62.00;;
32236;SDS011;18726;44.732;10.550;2023-11-21T03:04:24;82.53;;;64.93;;
32236;SDS011;18726;44.732;10.550;2023-11-21T03:07:27;71.22;;;57.10;;
32236;SDS011;18726;44.732;10.550;2023-11-21T03:10:31;73.90;;;58.60;;
32236;SDS011;18726;44.732;10.550;2023-11-21T03:13:35;78.03;;;62.03;;
32236;SDS011;18726;44.732;10.550;2023-11-21T03:16:38;69.35;;;58.72;;
32236;SDS011;18726;44.732;10.550;2023-11-21T03:19:44;77.40;;;61.90;;
32236;SDS011;18726;44.732;10.550;2023-11-21T03:22:47;79.10;;;64.28;;
32236;SDS011;18726;44.732;10.550;2023-11-21T03:25:52;77.35;;;63.65;;
32236;SDS011;18726;44.732;10.550;2023-11-21T03:28:55;72.82;;;59.72;;
32236;SDS011;18726;44.732;10.550;2023-11-21T03:31:59;79.30;;;68.22;;
32236;SDS011;18726;44.732;10.550;2023-11-21T03:35:04;87.68;;;73.03;;
32236;SDS011;18726;44.732;10.550;2023-11-21T03:38:09;84.03;;;74.22;;
32236;SDS011;18726;44.732;10.550;2023-11-21T03:41:13;86.63;;;67.43;;
32236;SDS011;18726;44.732;10.550;2023-11-21T03:44:17;85.40;;;67.60;;
32236;SDS011;18726;44.732;10.550;2023-11-21T03:47:22;75.80;;;64.82;;
32236;SDS011;18726;44.732;10.550;2023-11-21T03:50:26;78.72;;;63.47;;
32236;SDS011;18726;44.732;10.550;2023-11-21T03:53:29;72.35;;;57.60;;
32236;SDS011;18726;44.732;10.550;2023-11-21T03:56:33;76.25;;;63.65;;
32236;SDS011;18726;44.732;10.550;2023-11-21T03:59:40;65.97;;;57.75;;
32236;SDS011;18726;44.732;10.550;2023-11-21T04:02:45;74.47;;;57.75;;
32236;SDS011;18726;44.732;10.550;2023-11-21T04:05:49;70.45;;;57.42;;
32236;SDS011;18726;44.732;10.550;2023-11-21T04:08:53;65.03;;;52.92;;
32236;SDS011;18726;44.732;10.550;2023-11-21T04:11:56;69.60;;;61.13;;
32236;SDS011;18726;44.732;10.550;2023-11-21T04:15:00;69.43;;;59.05;;
32236;SDS011;18726;44.732;10.550;2023-11-21T04:18:04;76.50;;;58.70;;
32236;SDS011;18726;44.732;10.550;2023-11-21T04:21:08;67.65;;;58.72;;
32236;SDS011;18726;44.732;10.550;2023-11-21T04:24:11;72.07;;;56.80;;
32236;SDS011;18726;44.732;10.550;2023-11-21T04:27:15;82.07;;;68.03;;
32236;SDS011;18726;44.732;10.550;2023-11-21T04:30:21;66.07;;;55.65;;
32236;SDS011;18726;44.732;10.550;2023-11-21T04:33:24;63.22;;;50.75;;
32236;SDS011;18726;44.732;10.550;2023-11-21T04:36:28;64.47;;;53.20;;
32236;SDS011;18726;44.732;10.550;2023-11-21T04:39:33;58.60;;;47.63;;
32236;SDS011;18726;44.732;10.550;2023-11-21T04:42:37;54.17;;;48.28;;
32236;SDS011;18726;44.732;10.550;2023-11-21T04:45:41;56.10;;;46.08;;
32236;SDS011;18726;44.732;10.550;2023-11-21T04:48:45;52.17;;;46.10;;
32236;SDS011;18726;44.732;10.550;2023-11-21T04:55:06;52.90;;;45.97;;
32236;SDS011;18726;44.732;10.550;2023-11-21T04:58:12;51.60;;;45.95;;
32236;SDS011;18726;44.732;10.550;2023-11-21T05:01:16;55.35;;;46.13;;
32236;SDS011;18726;44.732;10.550;2023-11-21T05:04:20;54.08;;;46.65;;
32236;SDS011;18726;44.732;10.550;2023-11-21T05:07:25;53.72;;;45.65;;
32236;SDS011;18726;44.732;10.550;2023-11-21T05:10:31;62.70;;;50.92;;
32236;SDS011;18726;44.732;10.550;2023-11-21T05:13:35;58.88;;;47.33;;
32236;SDS011;18726;44.732;10.550;2023-11-21T05:16:39;57.03;;;48.67;;
32236;SDS011;18726;44.732;10.550;2023-11-21T05:19:43;55.05;;;48.85;;
32236;SDS011;18726;44.732;10.550;2023-11-21T05:22:48;57.05;;;48.78;;
32236;SDS011;18726;44.732;10.550;2023-11-21T05:25:52;58.97;;;49.33;;
32236;SDS011;18726;44.732;10.550;2023-11-21T05:28:56;62.25;;;51.75;;
32236;SDS011;18726;44.732;10.550;2023-11-21T05:32:00;61.53;;;51.83;;
32236;SDS011;18726;44.732;10.550;2023-11-21T05:35:04;57.80;;;49.67;;
32236;SDS011;18726;44.732;10.550;2023-11-21T05:38:13;56.13;;;49.20;;
32236;SDS011;18726;44.732;10.550;2023-11-21T05:41:17;62.90;;;52.50;;
32236;SDS011;18726;44.732;10.550;2023-11-21T05:44:20;60.40;;;51.75;;
32236;SDS011;18726;44.732;10.550;2023-11-21T05:47:24;43.00;;;37.90;;
32236;SDS011;18726;44.732;10.550;2023-11-21T05:50:29;42.45;;;37.50;;
32236;SDS011;18726;44.732;10.550;2023-11-21T05:53:34;49.65;;;41.80;;
32236;SDS011;18726;44.732;10.550;2023-11-21T05:56:38;69.03;;;54.78;;
32236;SDS011;18726;44.732;10.550;2023-11-21T05:59:41;71.13;;;57.22;;
32236;SDS011;18726;44.732;10.550;2023-11-21T06:02:45;74.95;;;57.85;;
32236;SDS011;18726;44.732;10.550;2023-11-21T06:05:49;62.80;;;52.65;;
32236;SDS011;18726;44.732;10.550;2023-11-21T06:08:53;65.93;;;54.13;;
32236;SDS011;18726;44.732;10.550;2023-11-21T06:11:56;60.22;;;49.10;;
32236;SDS011;18726;44.732;10.550;2023-11-21T06:15:04;54.72;;;45.85;;
32236;SDS011;18726;44.732;10.550;2023-11-21T06:18:08;45.10;;;37.10;;
32236;SDS011;18726;44.732;10.550;2023-11-21T06:21:14;50.70;;;42.00;;
32236;SDS011;18726;44.732;10.550;2023-11-21T06:24:20;54.30;;;42.03;;
32236;SDS011;18726;44.732;10.550;2023-11-21T06:27:24;49.83;;;44.53;;
32236;SDS011;18726;44.732;10.550;2023-11-21T06:30:27;57.58;;;45.72;;
32236;SDS011;18726;44.732;10.550;2023-11-21T06:33:32;55.63;;;44.42;;
32236;SDS011;18726;44.732;10.550;2023-11-21T06:36:36;65.28;;;52.50;;
32236;SDS011;18726;44.732;10.550;2023-11-21T06:39:40;68.50;;;58.92;;
32236;SDS011;18726;44.732;10.550;2023-11-21T06:42:44;84.43;;;64.40;;
32236;SDS011;18726;44.732;10.550;2023-11-21T06:45:48;86.90;;;70.50;;
32236;SDS011;18726;44.732;10.550;2023-11-21T06:48:52;86.50;;;71.75;;
32236;SDS011;18726;44.732;10.550;2023-11-21T06:51:55;85.82;;;66.68;;
32236;SDS011;18726;44.732;10.550;2023-11-21T06:54:59;87.55;;;70.03;;
32236;SDS011;18726;44.732;10.550;2023-11-21T06:58:03;88.95;;;72.90;;
32236;SDS011;18726;44.732;10.550;2023-11-21T07:01:08;89.13;;;71.70;;
32236;SDS011;18726;44.732;10.550;2023-11-21T07:04:12;86.55;;;72.20;;
32236;SDS011;18726;44.732;10.550;2023-11-21T07:07:15;84.28;;;66.95;;
32236;SDS011;18726;44.732;10.550;2023-11-21T07:10:18;73.60;;;63.35;;
32236;SDS011;18726;44.732;10.550;2023-11-21T07:13:22;72.05;;;59.72;;
32236;SDS011;18726;44.732;10.550;2023-11-21T07:16:26;75.20;;;59.15;;
32236;SDS011;18726;44.732;10.550;2023-11-21T07:19:30;68.55;;;59.03;;
32236;SDS011;18726;44.732;10.550;2023-11-21T07:22:33;64.25;;;56.00;;
32236;SDS011;18726;44.732;10.550;2023-11-21T07:25:37;69.53;;;57.88;;
32236;SDS011;18726;44.732;10.550;2023-11-21T07:28:40;72.20;;;62.58;;
32236;SDS011;18726;44.732;10.550;2023-11-21T07:31:44;77.60;;;68.53;;
32236;SDS011;18726;44.732;10.550;2023-11-21T07:34:47;83.20;;;72.13;;
32236;SDS011;18726;44.732;10.550;2023-11-21T07:37:51;90.60;;;70.45;;
32236;SDS011;18726;44.732;10.550;2023-11-21T07:40:54;84.90;;;67.65;;
32236;SDS011;18726;44.732;10.550;2023-11-21T07:43:58;71.07;;;61.60;;
32236;SDS011;18726;44.732;10.550;2023-11-21T07:47:01;72.68;;;60.10;;
32236;SDS011;18726;44.732;10.550;2023-11-21T07:50:05;73.78;;;61.15;;
32236;SDS011;18726;44.732;10.550;2023-11-21T07:53:10;66.70;;;58.63;;
32236;SDS011;18726;44.732;10.550;2023-11-21T07:56:13;68.15;;;58.63;;
32236;SDS011;18726;44.732;10.550;2023-11-21T07:59:17;73.15;;;58.85;;
32236;SDS011;18726;44.732;10.550;2023-11-21T08:02:21;68.72;;;57.30;;
32236;SDS011;18726;44.732;10.550;2023-11-21T08:05:24;60.40;;;52.10;;
32236;SDS011;18726;44.732;10.550;2023-11-21T08:08:28;62.03;;;51.13;;
32236;SDS011;18726;44.732;10.550;2023-11-21T08:11:32;63.53;;;52.78;;
32236;SDS011;18726;44.732;10.550;2023-11-21T08:14:36;67.32;;;52.00;;
32236;SDS011;18726;44.732;10.550;2023-11-21T08:17:42;55.15;;;47.00;;
32236;SDS011;18726;44.732;10.550;2023-11-21T08:20:46;66.70;;;55.38;;
32236;SDS011;18726;44.732;10.550;2023-11-21T08:23:52;61.25;;;53.22;;
32236;SDS011;18726;44.732;10.550;2023-11-21T08:26:57;56.45;;;46.75;;
32236;SDS011;18726;44.732;10.550;2023-11-21T08:30:04;62.83;;;55.92;;
32236;SDS011;18726;44.732;10.550;2023-11-21T08:33:09;71.47;;;60.30;;
32236;SDS011;18726;44.732;10.550;2023-11-21T08:36:13;73.95;;;60.38;;
32236;SDS011;18726;44.732;10.550;2023-11-21T08:39:17;77.47;;;62.85;;
32236;SDS011;18726;44.732;10.550;2023-11-21T08:42:22;64.35;;;53.00;;
32236;SDS011;18726;44.732;10.550;2023-11-21T08:45:26;61.58;;;51.78;;
32236;SDS011;18726;44.732;10.550;2023-11-21T08:48:30;65.15;;;53.90;;
32236;SDS011;18726;44.732;10.550;2023-11-21T08:51:33;61.72;;;50.17;;
32236;SDS011;18726;44.732;10.550;2023-11-21T08:54:37;66.18;;;57.92;;
32236;SDS011;18726;44.732;10.550;2023-11-21T08:57:41;66.45;;;53.15;;
32236;SDS011;18726;44.732;10.550;2023-11-21T09:00:47;65.88;;;53.53;;
32236;SDS011;18726;44.732;10.550;2023-11-21T09:03:51;58.75;;;50.95;;
32236;SDS011;18726;44.732;10.550;2023-11-21T09:06:55;67.15;;;54.05;;
32236;SDS011;18726;44.732;10.550;2023-11-21T09:09:59;62.65;;;52.97;;
32236;SDS011;18726;44.732;10.550;2023-11-21T09:13:03;66.68;;;53.38;;
32236;SDS011;18726;44.732;10.550;2023-11-21T09:16:07;71.38;;;57.20;;
32236;SDS011;18726;44.732;10.550;2023-11-21T09:19:10;64.32;;;55.95;;
32236;SDS011;18726;44.732;10.550;2023-11-21T09:22:15;65.18;;;52.80;;
32236;SDS011;18726;44.732;10.550;2023-11-21T09:25:19;61.83;;;52.47;;
32236;SDS011;18726;44.732;10.550;2023-11-21T09:28:24;62.95;;;52.00;;
32236;SDS011;18726;44.732;10.550;2023-11-21T09:31:28;68.40;;;57.80;;
32236;SDS011;18726;44.732;10.550;2023-11-21T09:34:31;73.13;;;60.97;;
32236;SDS011;18726;44.732;10.550;2023-11-21T09:37:35;65.20;;;55.05;;
32236;SDS011;18726;44.732;10.550;2023-11-21T09:40:39;63.70;;;52.90;;
32236;SDS011;18726;44.732;10.550;2023-11-21T09:43:44;64.18;;;53.88;;
32236;SDS011;18726;44.732;10.550;2023-11-21T09:46:50;68.47;;;55.15;;
32236;SDS011;18726;44.732;10.550;2023-11-21T09:49:58;59.78;;;48.60;;
32236;SDS011;18726;44.732;10.550;2023-11-21T09:56:22;70.10;;;60.72;;
32236;SDS011;18726;44.732;10.550;2023-11-21T09:59:29;79.45;;;66.88;;
32236;SDS011;18726;44.732;10.550;2023-11-21T10:02:34;71.35;;;60.42;;
32236;SDS011;18726;44.732;10.550;2023-11-21T10:05:40;73.72;;;60.22;;
32236;SDS011;18726;44.732;10.550;2023-11-21T10:08:45;72.30;;;60.88;;
32236;SDS011;18726;44.732;10.550;2023-11-21T10:11:49;65.35;;;54.63;;
32236;SDS011;18726;44.732;10.550;2023-11-21T10:14:54;66.63;;;58.90;;
32236;SDS011;18726;44.732;10.550;2023-11-21T10:18:02;73.13;;;60.42;;
32236;SDS011;18726;44.732;10.550;2023-11-21T10:21:07;61.63;;;50.22;;
32236;SDS011;18726;44.732;10.550;2023-11-21T10:24:12;64.32;;;54.30;;
32236;SDS011;18726;44.732;10.550;2023-11-21T10:27:16;58.17;;;50.22;;
32236;SDS011;18726;44.732;10.550;2023-11-21T10:30:19;62.33;;;51.38;;
32236;SDS011;18726;44.732;10.550;2023-11-21T10:33:32;57.20;;;48.63;;
32236;SDS011;18726;44.732;10.550;2023-11-21T10:36:35;56.45;;;50.05;;
32236;SDS011;18726;44.732;10.550;2023-11-21T10:39:39;66.55;;;49.13;;
32236;SDS011;18726;44.732;10.550;2023-11-21T10:42:43;65.10;;;53.63;;
32236;SDS011;18726;44.732;10.550;2023-11-21T10:45:47;73.25;;;54.63;;
32236;SDS011;18726;44.732;10.550;2023-11-21T10:48:54;52.45;;;45.40;;
32236;SDS011;18726;44.732;10.550;2023-11-21T10:51:59;58.20;;;49.92;;
32236;SDS011;18726;44.732;10.550;2023-11-21T10:55:05;66.28;;;55.40;;
32236;SDS011;18726;44.732;10.550;2023-11-21T10:58:19;71.18;;;56.47;;
32236;SDS011;18726;44.732;10.550;2023-11-21T11:01:23;64.82;;;56.88;;
32236;SDS011;18726;44.732;10.550;2023-11-21T11:04:32;72.70;;;56.53;;
32236;SDS011;18726;44.732;10.550;2023-11-21T11:07:37;63.72;;;56.30;;
32236;SDS011;18726;44.732;10.550;2023-11-21T11:10:46;72.38;;;61.25;;
32236;SDS011;18726;44.732;10.550;2023-11-21T11:13:51;69.28;;;61.65;;
32236;SDS011;18726;44.732;10.550;2023-11-21T11:16:56;69.38;;;58.97;;
32236;SDS011;18726;44.732;10.550;2023-11-21T11:20:02;66.28;;;57.15;;
32236;SDS011;18726;44.732;10.550;2023-11-21T11:26:55;65.95;;;52.53;;
32236;SDS011;18726;44.732;10.550;2023-11-21T11:30:08;66.75;;;56.65;;
32236;SDS011;18726;44.732;10.550;2023-11-21T11:37:08;80.15;;;60.75;;
32236;SDS011;18726;44.732;10.550;2023-11-21T11:40:14;55.95;;;46.13;;
32236;SDS011;18726;44.732;10.550;2023-11-21T11:43:26;60.47;;;49.28;;
32236;SDS011;18726;44.732;10.550;2023-11-21T11:46:40;66.90;;;52.42;;
32236;SDS011;18726;44.732;10.550;2023-11-21T11:50:02;65.15;;;49.35;;
32236;SDS011;18726;44.732;10.550;2023-11-21T11:53:26;63.80;;;47.13;;
32236;SDS011;18726;44.732;10.550;2023-11-21T11:56:38;66.82;;;51.30;;
32236;SDS011;18726;44.732;10.550;2023-11-21T12:03:20;58.88;;;51.25;;
32236;SDS011;18726;44.732;10.550;2023-11-21T12:06:34;82.00;;;59.55;;
32236;SDS011;18726;44.732;10.550;2023-11-21T12:09:38;65.53;;;55.30;;
32236;SDS011;18726;44.732;10.550;2023-11-21T12:12:43;71.25;;;61.83;;
32236;SDS011;18726;44.732;10.550;2023-11-21T12:15:49;72.20;;;57.60;;
32236;SDS011;18726;44.732;10.550;2023-11-21T12:18:53;74.40;;;60.78;;
32236;SDS011;18726;44.732;10.550;2023-11-21T12:21:57;80.45;;;67.07;;
32236;SDS011;18726;44.732;10.550;2023-11-21T12:25:01;78.38;;;63.95;;
32236;SDS011;18726;44.732;10.550;2023-11-21T12:28:05;73.68;;;63.03;;
32236;SDS011;18726;44.732;10.550;2023-11-21T12:31:09;72.82;;;62.00;;
32236;SDS011;18726;44.732;10.550;2023-11-21T12:34:14;78.30;;;63.90;;
32236;SDS011;18726;44.732;10.550;2023-11-21T12:37:18;77.95;;;66.50;;
32236;SDS011;18726;44.732;10.550;2023-11-21T12:40:21;79.43;;;63.83;;
32236;SDS011;18726;44.732;10.550;2023-11-21T12:43:26;77.47;;;64.05;;
32236;SDS011;18726;44.732;10.550;2023-11-21T12:46:31;85.57;;;65.30;;
32236;SDS011;18726;44.732;10.550;2023-11-21T12:49:37;81.55;;;67.45;;
32236;SDS011;18726;44.732;10.550;2023-11-21T12:52:45;80.53;;;66.28;;
32236;SDS011;18726;44.732;10.550;2023-11-21T12:55:52;83.38;;;64.10;;
32236;SDS011;18726;44.732;10.550;2023-11-21T12:59:00;86.80;;;66.60;;
32236;SDS011;18726;44.732;10.550;2023-11-21T13:02:07;83.68;;;65.38;;
32236;SDS011;18726;44.732;10.550;2023-11-21T13:05:12;81.20;;;68.53;;
32236;SDS011;18726;44.732;10.550;2023-11-21T13:08:25;94.15;;;75.03;;
32236;SDS011;18726;44.732;10.550;2023-11-21T13:11:29;93.53;;;73.15;;
32236;SDS011;18726;44.732;10.550;2023-11-21T13:14:39;81.15;;;66.35;;
32236;SDS011;18726;44.732;10.550;2023-11-21T13:17:43;87.47;;;72.22;;
32236;SDS011;18726;44.732;10.550;2023-11-21T13:20:50;90.65;;;73.13;;
32236;SDS011;18726;44.732;10.550;2023-11-21T13:23:55;88.35;;;69.22;;
32236;SDS011;18726;44.732;10.550;2023-11-21T13:26:59;83.90;;;65.18;;
32236;SDS011;18726;44.732;10.550;2023-11-21T13:30:02;76.97;;;61.70;;
32236;SDS011;18726;44.732;10.550;2023-11-21T13:33:07;77.88;;;64.32;;
32236;SDS011;18726;44.732;10.550;2023-11-21T13:36:12;82.75;;;66.70;;
32236;SDS011;18726;44.732;10.550;2023-11-21T13:39:18;82.90;;;67.75;;
32236;SDS011;18726;44.732;10.550;2023-11-21T13:42:22;82.20;;;67.47;;
32236;SDS011;18726;44.732;10.550;2023-11-21T13:45:28;87.35;;;69.18;;
32236;SDS011;18726;44.732;10.550;2023-11-21T13:48:33;88.50;;;69.90;;
32236;SDS011;18726;44.732;10.550;2023-11-21T13:51:51;81.20;;;68.00;;
32236;SDS011;18726;44.732;10.550;2023-11-21T13:54:58;84.65;;;66.28;;
32236;SDS011;18726;44.732;10.550;2023-11-21T13:58:01;86.65;;;67.60;;
32236;SDS011;18726;44.732;10.550;2023-11-21T14:01:07;72.75;;;61.25;;
32236;SDS011;18726;44.732;10.550;2023-11-21T14:04:27;81.78;;;65.93;;
32236;SDS011;18726;44.732;10.550;2023-11-21T14:07:34;80.30;;;64.00;;
32236;SDS011;18726;44.732;10.550;2023-11-21T14:10:40;79.32;;;63.72;;
32236;SDS011;18726;44.732;10.550;2023-11-21T14:13:46;85.05;;;68.05;;
32236;SDS011;18726;44.732;10.550;2023-11-21T14:16:52;80.50;;;66.90;;
32236;SDS011;18726;44.732;10.550;2023-11-21T14:19:56;84.20;;;66.80;;
32236;SDS011;18726;44.732;10.550;2023-11-21T14:22:59;77.47;;;63.38;;
32236;SDS011;18726;44.732;10.550;2023-11-21T14:26:03;72.65;;;58.65;;
32236;SDS011;18726;44.732;10.550;2023-11-21T14:29:09;59.72;;;50.15;;
32236;SDS011;18726;44.732;10.550;2023-11-21T14:32:15;68.13;;;50.80;;
32236;SDS011;18726;44.732;10.550;2023-11-21T14:35:19;64.35;;;57.17;;
32236;SDS011;18726;44.732;10.550;2023-11-21T14:38:23;69.07;;;55.72;;
32236;SDS011;18726;44.732;10.550;2023-11-21T14:41:27;56.30;;;46.65;;
32236;SDS011;18726;44.732;10.550;2023-11-21T14:44:32;55.20;;;44.78;;
32236;SDS011;18726;44.732;10.550;2023-11-21T14:47:41;59.97;;;47.30;;
32236;SDS011;18726;44.732;10.550;2023-11-21T14:50:49;52.20;;;43.35;;
32236;SDS011;18726;44.732;10.550;2023-11-21T14:54:05;47.60;;;39.08;;
32236;SDS011;18726;44.732;10.550;2023-11-21T14:57:13;59.42;;;48.80;;
32236;SDS011;18726;44.732;10.550;2023-11-21T15:00:21;55.40;;;44.38;;
32236;SDS011;18726;44.732;10.550;2023-11-21T15:03:37;53.67;;;41.75;;
32236;SDS011;18726;44.732;10.550;2023-11-21T15:06:47;45.92;;;40.03;;
32236;SDS011;18726;44.732;10.550;2023-11-21T15:09:51;53.03;;;40.38;;
32236;SDS011;18726;44.732;10.550;2023-11-21T15:12:57;46.47;;;38.22;;
32236;SDS011;18726;44.732;10.550;2023-11-21T15:16:01;49.97;;;41.42;;
32236;SDS011;18726;44.732;10.550;2023-11-21T15:19:11;44.85;;;39.55;;
32236;SDS011;18726;44.732;10.550;2023-11-21T15:22:21;48.00;;;39.67;;
32236;SDS011;18726;44.732;10.550;2023-11-21T15:25:25;38.58;;;34.30;;
32236;SDS011;18726;44.732;10.550;2023-11-21T15:28:29;46.72;;;37.90;;
32236;SDS011;18726;44.732;10.550;2023-11-21T15:31:32;46.58;;;37.97;;
32236;SDS011;18726;44.732;10.550;2023-11-21T15:34:36;45.28;;;38.15;;
32236;SDS011;18726;44.732;10.550;2023-11-21T15:37:41;44.53;;;37.38;;
32236;SDS011;18726;44.732;10.550;2023-11-21T15:40:46;47.45;;;37.65;;
32236;SDS011;18726;44.732;10.550;2023-11-21T15:43:50;47.30;;;36.55;;
32236;SDS011;18726;44.732;10.550;2023-11-21T15:46:54;57.97;;;41.80;;
32236;SDS011;18726;44.732;10.550;2023-11-21T15:49:59;56.33;;;43.15;;
32236;SDS011;18726;44.732;10.550;2023-11-21T15:53:02;50.78;;;43.40;;
32236;SDS011;18726;44.732;10.550;2023-11-21T15:56:09;63.38;;;53.13;;
32236;SDS011;18726;44.732;10.550;2023-11-21T15:59:15;68.13;;;50.97;;
32236;SDS011;18726;44.732;10.550;2023-11-21T16:02:22;66.00;;;53.22;;
32236;SDS011;18726;44.732;10.550;2023-11-21T16:05:28;55.05;;;44.75;;
32236;SDS011;18726;44.732;10.550;2023-11-21T16:08:31;45.35;;;40.45;;
32236;SDS011;18726;44.732;10.550;2023-11-21T16:11:36;51.92;;;39.03;;
32236;SDS011;18726;44.732;10.550;2023-11-21T16:14:40;55.35;;;41.58;;
32236;SDS011;18726;44.732;10.550;2023-11-21T16:20:55;55.67;;;42.95;;
32236;SDS011;18726;44.732;10.550;2023-11-21T16:23:59;59.00;;;45.78;;
32236;SDS011;18726;44.732;10.550;2023-11-21T16:27:03;64.95;;;52.30;;
32236;SDS011;18726;44.732;10.550;2023-11-21T16:30:07;62.47;;;48.15;;
32236;SDS011;18726;44.732;10.550;2023-11-21T16:33:14;62.25;;;50.40;;
32236;SDS011;18726;44.732;10.550;2023-11-21T16:36:18;58.92;;;50.08;;
32236;SDS011;18726;44.732;10.550;2023-11-21T16:39:21;61.22;;;48.10;;
32236;SDS011;18726;44.732;10.550;2023-11-21T16:42:25;60.60;;;49.22;;
32236;SDS011;18726;44.732;10.550;2023-11-21T16:45:34;57.63;;;45.05;;
32236;SDS011;18726;44.732;10.550;2023-11-21T16:48:37;57.60;;;45.40;;
32236;SDS011;18726;44.732;10.550;2023-11-21T16:51:44;70.97;;;50.75;;
32236;SDS011;18726;44.732;10.550;2023-11-21T16:54:49;59.05;;;44.97;;
32236;SDS011;18726;44.732;10.550;2023-11-21T16:57:52;59.88;;;47.38;;
32236;SDS011;18726;44.732;10.550;2023-11-21T17:00:56;61.78;;;49.63;;
32236;SDS011;18726;44.732;10.550;2023-11-21T17:04:00;62.75;;;48.92;;
32236;SDS011;18726;44.732;10.550;2023-11-21T17:07:05;50.55;;;44.92;;
32236;SDS011;18726;44.732;10.550;2023-11-21T17:10:09;56.65;;;44.33;;
32236;SDS011;18726;44.732;10.550;2023-11-21T17:13:14;58.97;;;47.42;;
32236;SDS011;18726;44.732;10.550;2023-11-21T17:16:19;58.13;;;42.15;;
32236;SDS011;18726;44.732;10.550;2023-11-21T17:19:22;57.72;;;47.20;;
32236;SDS011;18726;44.732;10.550;2023-11-21T17:22:26;70.72;;;52.45;;
32236;SDS011;18726;44.732;10.550;2023-11-21T17:25:30;56.10;;;46.65;;
32236;SDS011;18726;44.732;10.550;2023-11-21T17:28:34;56.42;;;45.05;;
32236;SDS011;18726;44.732;10.550;2023-11-21T17:31:38;65.63;;;48.50;;
32236;SDS011;18726;44.732;10.550;2023-11-21T17:34:41;60.42;;;50.88;;
32236;SDS011;18726;44.732;10.550;2023-11-21T17:37:45;60.97;;;47.25;;
32236;SDS011;18726;44.732;10.550;2023-11-21T17:40:49;58.55;;;49.13;;
32236;SDS011;18726;44.732;10.550;2023-11-21T17:43:53;65.93;;;49.70;;
32236;SDS011;18726;44.732;10.550;2023-11-21T17:46:57;60.22;;;48.10;;
32236;SDS011;18726;44.732;10.550;2023-11-21T17:50:01;62.95;;;49.50;;
32236;SDS011;18726;44.732;10.550;2023-11-21T17:53:05;68.28;;;50.97;;
32236;SDS011;18726;44.732;10.550;2023-11-21T17:56:13;65.47;;;50.00;;
32236;SDS011;18726;44.732;10.550;2023-11-21T17:59:21;60.58;;;47.95;;
32236;SDS011;18726;44.732;10.550;2023-11-21T18:02:25;61.30;;;49.45;;
32236;SDS011;18726;44.732;10.550;2023-11-21T18:05:31;68.20;;;48.72;;
32236;SDS011;18726;44.732;10.550;2023-11-21T18:08:35;69.60;;;48.60;;